Eddyville, KY

5:10 PM CDT on July 27, 2016 (GMT -0500)
The Ridge Eddycreek | | Change Station
Active Advisory: Special Statement

Elev 471 ft 37.02 °N, 88.01 °W | Updated 19 seconds ago

Scattered Clouds
Scattered Clouds
92.0 °F
Feels Like 101 °F
N
0.0
Wind Variable Wind from South
Gusts 6.0 mph

Today
High -- | Low -- °F
--% Chance of Precip.
Yesterday
High -- | Low -- °F
Precip. -- in
Pressure 29.89 in
Visibility 10.0 miles
Clouds Scattered Clouds 3700 ft
Scattered Clouds 4500 ft
Heat Index 101 °F
Dew Point 73 °F
Humidity 55%
Rainfall 0.00 in
Snow Depth Not available.
5:53 AM 8:03 PM
Last Quarter, 39% visible
METAR K5M9 272155Z AUTO 07005KT 10SM SCT037 SCT045 31/26 A2989 RMK AO2 T03050262
Pressure 29.89 in
Visibility 10.0 miles
Clouds Scattered Clouds 3700 ft
Scattered Clouds 4500 ft
Heat Index 101 °F
Dew Point 73 °F
Humidity 55%
Rainfall 0.00 in
Snow Depth Not available.
5:53 AM 8:03 PM
Last Quarter, 39% visible
METAR K5M9 272155Z AUTO 07005KT 10SM SCT037 SCT045 31/26 A2989 RMK AO2 T03050262

10-Day Weather Forecast

Almanac

Astronomy

Jul. 27, 2016 Rise Set
Actual Time
Civil Twilight
Nautical Twilight
Astronomical Twilight
Moon
Length of Visible Light
Length of Day
Tomorrow will be .
, % of the Moon is Illuminated

Today's Extremes

State Highs State Lows

Community

WunderPhotos

Upload Photos

1,927,944 photos uploaded!

WunderBlog® & News

Nearby

Air Quality

  Air Quality AQ Index Pollutant
Not available.

Snow Depth

Station Depth Elevation

Earthquake Activity

City Distance Mag. Time & Date
Minimum magnitude displayed is 2.5.

Coastal Water Temperatures

Place Temperature

Stations

Nearby Weather Stations

Station Location Temp. Windchill Dew Point Humidity Wind Precip. Elev Updated Type
                   

Watches & Warnings

Special Statement
Issued: 1:46 PM CDT Jul. 27, 2016 – National Weather Service

... High levels of humidity resulting in heat index readings above
100 today...

Temperatures in the upper 80s to lower 90s combined with
dewpoints in the middle to upper 70s will produce heat index
readings of 100 to 105 this afternoon into the early evening hours.
Isolated showers and thunderstorms may provide temporary relief
for some communities this afternoon.


146 PM CDT Wed Jul 27 2016

... High levels of humidity resulting in heat index readings above
100 today...

Temperatures in the upper 80s to lower 90s combined with
dewpoints in the middle to upper 70s will produce heat index
readings of 100 to 105 this afternoon into the early evening hours.
Isolated showers and thunderstorms may provide temporary relief
for some communities this afternoon.